Salish — WDF6992 — position and weather

sailwx.info

Track history (hours):
 
Tides and Currents Weather Stations Pressure Air Temp Water Temp Dewpoint Dewpoint Depression Visibility Wind Speed Wind Dir Waves Ship Positions

Salish

Owner: WASHINGTON, STATE OF; Department of Transportation, Olympia, WA. More information available from US FCC via Universal Licensing System and Coast Guard Vessel Documentation Center.

Last reported at 2017-Oct-18 09:46 UTC. Time now 2017-Oct-18 11:17 UTC.
Position N 48°07' W 122°46'.

Length 86 m; draft 3.3 m.

Type: Passenger vessel. MMSI: 367480010.

Date/timePositionNaut miles runAvg speedWind from/ knotsBaromVisibWave heightAir tempDewpointWater temp
2017-Oct-18 09:46N 48°07' W 122°46'0 0.0
2017-Oct-18 08:08N 48°07' W 122°46'0 0.0
2017-Oct-18 07:49N 48°07' W 122°46'0 0.0
2017-Oct-18 07:29N 48°07' W 122°46'0 0.0
2017-Oct-18 04:38N 48°07' W 122°45'1 7.2
2017-Oct-18 04:29N 48°07' W 122°44'3 5.9
2017-Oct-18 03:56N 48°09' W 122°40'4 4.7
2017-Oct-18 03:02N 48°07' W 122°46'0 4.9
2017-Oct-18 02:59N 48°06' W 122°45'4 7.1
2017-Oct-18 02:21N 48°09' W 122°40'411.1
2017-Oct-18 01:58N 48°07' W 122°45'4 6.5
2017-Oct-18 01:20N 48°09' W 122°40'2 4.3
2017-Oct-18 00:46N 48°07' W 122°43'2 3.9
2017-Oct-18 00:17N 48°07' W 122°45'3 9.6
2017-Oct-18 00:00N 48°08' W 122°42'2 3.6
2017-Oct-17 23:29N 48°09' W 122°40'4 9.1
2017-Oct-17 23:00N 48°07' W 122°46'2 3.0
2017-Oct-17 22:30N 48°07' W 122°43'3 4.2
2017-Oct-17 21:46N 48°09' W 122°40'3 9.4
2017-Oct-17 21:26N 48°07' W 122°43'2 0.6
2017-Oct-17 18:52N 48°07' W 122°46'0 0.4
2017-Oct-17 18:24N 48°06' W 122°45'3 7.3
2017-Oct-17 17:59N 48°06' W 122°41'2 3.6
2017-Oct-17 17:30N 48°08' W 122°39'2 3.4
2017-Oct-17 16:55N 48°09' W 122°40'4 6.3
2017-Oct-17 16:12N 48°07' W 122°45'310.8
2017-Oct-17 15:56N 48°08' W 122°42'2 3.5
2017-Oct-17 15:26N 48°09' W 122°40'410.3
2017-Oct-17 15:00N 48°07' W 122°46'3 5.8
2017-Oct-17 14:29N 48°08' W 122°42'0 0.3
2017-Oct-17 13:49N 48°08' W 122°42'3 6.5
2017-Oct-17 13:22N 48°07' W 122°46'0 0.0
2017-Oct-17 07:21N 48°07' W 122°46'0 0.1
2017-Oct-17 04:36N 48°07' W 122°45'1 8.3
2017-Oct-17 04:30N 48°07' W 122°44'4 6.8
2017-Oct-17 03:58N 48°09' W 122°40'4 4.0
2017-Oct-17 02:53N 48°06' W 122°45'4 6.5
2017-Oct-17 02:14N 48°09' W 122°40'2 9.5
2017-Oct-17 02:00N 48°08' W 122°42'2 4.3
2017-Oct-17 01:27N 48°07' W 122°45'4 6.0
2017-Oct-17 00:43N 48°09' W 122°40'310.2
2017-Oct-17 00:27N 48°07' W 122°43'2 2.7
2017-Oct-16 23:45N 48°07' W 122°45'411.7
2017-Oct-16 23:22N 48°09' W 122°40'0 0.0
2017-Oct-16 23:00N 48°09' W 122°40'4 5.2
2017-Oct-16 22:11N 48°06' W 122°45'210.8
2017-Oct-16 22:00N 48°07' W 122°43'2 2.4
2017-Oct-16 21:21N 48°09' W 122°41'3 4.6
2017-Oct-16 20:40N 48°07' W 122°45'210.6
2017-Oct-16 20:30N 48°07' W 122°42'3 4.5
2017-Oct-16 19:56N 48°09' W 122°40'4 8.2
2017-Oct-16 19:24N 48°07' W 122°46'2 4.6
2017-Oct-16 19:00N 48°07' W 122°43'2 4.1
2017-Oct-16 18:24N 48°09' W 122°40'410.7
2017-Oct-16 18:00N 48°07' W 122°46'2 4.3
2017-Oct-16 17:30N 48°07' W 122°43'3 4.2
2017-Oct-16 16:55N 48°09' W 122°40'4 6.0
2017-Oct-16 16:11N 48°06' W 122°45'211.4
2017-Oct-16 15:58N 48°08' W 122°43'2 4.1
2017-Oct-16 15:28N 48°09' W 122°40'4 9.0
2017-Oct-16 14:59N 48°07' W 122°46'4 3.6
2017-Oct-16 13:53N 48°09' W 122°41'4 7.3
2017-Oct-16 13:21N 48°07' W 122°46'0 0.0
2017-Oct-16 12:51N 48°07' W 122°46'0 0.0
2017-Oct-16 12:30N 48°07' W 122°46'0 0.0
2017-Oct-16 12:00N 48°07' W 122°46'0 0.0
2017-Oct-16 11:20N 48°07' W 122°46'0 0.0
2017-Oct-16 10:59N 48°07' W 122°46'0 0.0
2017-Oct-16 10:30N 48°07' W 122°46'0 0.0
2017-Oct-16 10:00N 48°07' W 122°46'0 0.0
2017-Oct-16 09:30N 48°07' W 122°46'0 0.0
2017-Oct-16 09:00N 48°07' W 122°46'0 0.0
2017-Oct-16 08:30N 48°07' W 122°46'0 0.0
2017-Oct-16 07:59N 48°07' W 122°46'0 0.0
2017-Oct-16 07:30N 48°07' W 122°46'0 0.0
2017-Oct-16 06:56N 48°07' W 122°46'0 0.0
2017-Oct-16 06:30N 48°07' W 122°46'0 0.0
2017-Oct-16 05:51N 48°07' W 122°46'0 0.0
2017-Oct-16 05:28N 48°07' W 122°46'1 0.7
2017-Oct-16 04:34N 48°07' W 122°45'110.2
2017-Oct-16 04:30N 48°07' W 122°44'3 5.6
2017-Oct-16 03:57N 48°09' W 122°40'4 4.2
2017-Oct-16 02:57N 48°06' W 122°45'4 6.1
2017-Oct-16 02:15N 48°09' W 122°40'310.5
2017-Oct-16 01:56N 48°07' W 122°44'1 1.0
2017-Oct-16 01:25N 48°07' W 122°45'4 5.7
2017-Oct-16 00:43N 48°09' W 122°40'210.1
2017-Oct-16 00:30N 48°08' W 122°43'2 2.7
2017-Oct-15 23:49N 48°07' W 122°45'4 5.3
2017-Oct-15 23:05N 48°09' W 122°40'1 8.8
2017-Oct-15 22:55N 48°08' W 122°42'3 4.8
2017-Oct-15 22:19N 48°07' W 122°45'2 1.7
2017-Oct-15 21:16N 48°08' W 122°43'2 2.7
2017-Oct-15 20:43N 48°06' W 122°45'211.2
2017-Oct-15 20:29N 48°08' W 122°42'2 3.8
2017-Oct-15 20:00N 48°09' W 122°40'4 5.9
2017-Oct-15 19:15N 48°07' W 122°45'310.8
2017-Oct-15 19:01N 48°08' W 122°42'2 4.1
2017-Oct-15 18:30N 48°09' W 122°40'4 5.4
2017-Oct-15 17:42N 48°06' W 122°45'211.1
2017-Oct-15 17:30N 48°07' W 122°42'2 4.2
2017-Oct-15 16:57N 48°09' W 122°40'4 5.6
2017-Oct-15 16:09N 48°07' W 122°45'210.9
2017-Oct-15 15:59N 48°07' W 122°43'2 4.3
2017-Oct-15 15:25N 48°09' W 122°40'4 6.1
2017-Oct-15 14:43N 48°07' W 122°46'4 5.9
2017-Oct-15 13:57N 48°09' W 122°40'4 9.3
2017-Oct-15 13:28N 48°07' W 122°46'0 0.0
2017-Oct-15 12:59N 48°07' W 122°46'0 0.0
2017-Oct-15 12:23N 48°07' W 122°46'0 0.0
2017-Oct-15 12:00N 48°07' W 122°46'0 0.0
2017-Oct-15 11:05N 48°07' W 122°46'0 0.0
2017-Oct-15 10:59N 48°07' W 122°46'0 0.0
2017-Oct-15 09:36N 48°07' W 122°46'0 0.0
2017-Oct-15 09:12N 48°07' W 122°46'0 0.0
2017-Oct-15 08:51N 48°07' W 122°46'0 0.0
2017-Oct-15 06:02N 48°07' W 122°46'0 0.0
2017-Oct-15 04:39N 48°07' W 122°46'1 4.2
2017-Oct-15 04:30N 48°07' W 122°45'4 6.7
2017-Oct-15 03:55N 48°09' W 122°40'410.8
2017-Oct-15 03:30N 48°07' W 122°46'0 0.1
2017-Oct-15 02:59N 48°07' W 122°46'4 5.9
2017-Oct-15 02:14N 48°09' W 122°40'311.4
2017-Oct-15 01:58N 48°07' W 122°44'1 3.0
2017-Oct-15 01:30N 48°07' W 122°46'4 5.5
2017-Oct-15 00:42N 48°09' W 122°40'4 5.5
2017-Oct-14 23:54N 48°07' W 122°46'4 4.7
2017-Oct-14 23:02N 48°09' W 122°41'210.9
2017-Oct-14 22:51N 48°08' W 122°43'2 2.5
2017-Oct-14 22:15N 48°07' W 122°45'4 6.0
2017-Oct-14 21:35N 48°09' W 122°40'1 8.4
2017-Oct-14 21:28N 48°09' W 122°41'4 6.3
2017-Oct-14 20:54N 48°07' W 122°46'4 8.8
2017-Oct-14 20:30N 48°09' W 122°41'1 1.7
2017-Oct-14 20:00N 48°09' W 122°40'4 6.3
2017-Oct-14 19:18N 48°07' W 122°46'3 9.6
2017-Oct-14 19:00N 48°08' W 122°42'2 3.3
2017-Oct-14 18:29N 48°09' W 122°40'4 6.1
2017-Oct-14 17:45N 48°07' W 122°46'2 9.3
2017-Oct-14 17:30N 48°07' W 122°42'3 4.7
2017-Oct-14 16:58N 48°09' W 122°40'4 7.1
2017-Oct-14 16:20N 48°07' W 122°46'2 6.4
2017-Oct-14 16:00N 48°07' W 122°43'3 4.5
2017-Oct-14 15:26N 48°09' W 122°40'4 5.7
2017-Oct-14 14:40N 48°06' W 122°45'210.1
2017-Oct-14 14:30N 48°08' W 122°43'3 4.7
2017-Oct-14 13:55N 48°09' W 122°40'4 0.5
2017-Oct-14 04:40N 48°06' W 122°45'211.3
2017-Oct-14 04:30N 48°08' W 122°43'3 5.2
2017-Oct-14 04:00N 48°09' W 122°40'5 5.1
2017-Oct-14 03:06N 48°07' W 122°45'1 5.7
2017-Oct-14 03:00N 48°07' W 122°45'4 5.3
2017-Oct-14 02:16N 48°09' W 122°40'311.4
2017-Oct-14 02:00N 48°07' W 122°44'2 0.8
2017-Oct-13 23:34N 48°09' W 122°42'1 2.2
2017-Oct-13 23:06N 48°09' W 122°40'1 9.6
2017-Oct-13 22:59N 48°09' W 122°41'3 5.2
2017-Oct-13 22:21N 48°06' W 122°45'412.0
2017-Oct-13 21:59N 48°09' W 122°40'2 2.9
2017-Oct-13 21:26N 48°08' W 122°42'3 4.5
2017-Oct-13 20:50N 48°06' W 122°45'412.3
2017-Oct-13 20:30N 48°09' W 122°40'1 2.4
2017-Oct-13 19:58N 48°08' W 122°42'3 4.9
2017-Oct-13 19:20N 48°06' W 122°45'412.2
2017-Oct-13 19:00N 48°09' W 122°40'0 0.3
2017-Oct-13 18:30N 48°09' W 122°41'4 5.8
2017-Oct-13 17:49N 48°07' W 122°46'3 9.4
2017-Oct-13 17:30N 48°08' W 122°41'2 2.9
2017-Oct-13 16:58N 48°09' W 122°40'4 9.5
2017-Oct-13 16:30N 48°07' W 122°46'2 4.1
2017-Oct-13 15:59N 48°07' W 122°43'2 4.3
2017-Oct-13 15:26N 48°09' W 122°40'410.2
2017-Oct-13 15:00N 48°07' W 122°46'2 4.2
2017-Oct-13 14:30N 48°08' W 122°43'2 3.5
2017-Oct-13 13:55N 48°08' W 122°40'4 0.5
2017-Oct-13 06:11N 48°07' W 122°46'0 0.2
2017-Oct-13 04:34N 48°06' W 122°45'1 9.0
2017-Oct-13 04:30N 48°07' W 122°45'4 6.3
2017-Oct-13 03:55N 48°09' W 122°40'4 4.7
2017-Oct-13 02:58N 48°07' W 122°45'2 1.9
2017-Oct-13 01:57N 48°08' W 122°43'2 3.7
2017-Oct-13 01:28N 48°06' W 122°45'2 1.8
2017-Oct-13 00:28N 48°08' W 122°43'2 3.3
2017-Oct-12 23:54N 48°07' W 122°46'2 5.7
2017-Oct-12 23:30N 48°08' W 122°43'2 4.4
2017-Oct-12 22:59N 48°09' W 122°40'4 7.9
2017-Oct-12 22:26N 48°07' W 122°46'2 5.2
2017-Oct-12 22:00N 48°08' W 122°43'2 4.2
2017-Oct-12 21:28N 48°09' W 122°40'4 5.7
2017-Oct-12 20:42N 48°07' W 122°45'2 9.3
2017-Oct-12 20:29N 48°08' W 122°43'3 4.8
2017-Oct-12 19:57N 48°09' W 122°40'4 5.4
2017-Oct-12 19:09N 48°06' W 122°45'210.8
2017-Oct-12 19:01N 48°07' W 122°43'3 4.9
2017-Oct-12 18:27N 48°09' W 122°40'4 6.4
2017-Oct-12 17:46N 48°07' W 122°46'2 9.0
2017-Oct-12 17:30N 48°08' W 122°42'2 4.3
2017-Oct-12 17:00N 48°09' W 122°40'4 5.2
2017-Oct-12 16:10N 48°06' W 122°45'211.4
2017-Oct-12 15:59N 48°07' W 122°42'3 4.5
2017-Oct-12 15:26N 48°09' W 122°40'410.3
2017-Oct-12 15:00N 48°07' W 122°46'2 3.7
2017-Oct-12 14:31N 48°07' W 122°43'3 5.5
2017-Oct-12 13:59N 48°09' W 122°40'4 5.9
2017-Oct-12 13:14N 48°07' W 122°46'0 0.0
2017-Oct-12 12:58N 48°07' W 122°46'0 0.0
2017-Oct-12 12:31N 48°07' W 122°46'0 0.0
2017-Oct-12 11:54N 48°07' W 122°46'0 0.0
2017-Oct-12 11:25N 48°07' W 122°46'0 0.0
2017-Oct-12 10:30N 48°07' W 122°46'0 0.0
2017-Oct-12 07:51N 48°07' W 122°46'0 0.0
2017-Oct-12 07:25N 48°07' W 122°46'0 0.0
2017-Oct-12 07:00N 48°07' W 122°46'0 0.0
2017-Oct-12 06:27N 48°07' W 122°46'0 0.0
2017-Oct-12 05:54N 48°07' W 122°46'0 0.0
2017-Oct-12 05:28N 48°07' W 122°46'0 0.0
2017-Oct-12 05:00N 48°07' W 122°46'1 1.3
2017-Oct-12 04:30N 48°07' W 122°45'4 6.7
2017-Oct-12 03:55N 48°09' W 122°40'4 4.8
2017-Oct-12 02:59N 48°07' W 122°46'4 6.0
2017-Oct-12 02:16N 48°09' W 122°40'411.5
2017-Oct-12 01:57N 48°07' W 122°44'0 0.7
2017-Oct-12 01:29N 48°07' W 122°45'4 5.0
2017-Oct-12 00:41N 48°09' W 122°40'210.7
2017-Oct-12 00:28N 48°08' W 122°43'2 2.9
2017-Oct-11 23:44N 48°06' W 122°45'310.7
2017-Oct-11 23:28N 48°08' W 122°42'2 3.6
2017-Oct-11 23:00N 48°09' W 122°40'4 6.2
2017-Oct-11 22:16N 48°07' W 122°45'3 9.7
2017-Oct-11 21:57N 48°09' W 122°42'1 3.0
2017-Oct-11 21:30N 48°09' W 122°40'4 5.6
2017-Oct-11 20:42N 48°07' W 122°45'2 2.4
2017-Oct-11 19:45N 48°08' W 122°42'2 5.0
2017-Oct-11 19:17N 48°07' W 122°46'2 7.5
2017-Oct-11 19:00N 48°08' W 122°43'2 4.9
2017-Oct-11 18:30N 48°09' W 122°40'4 8.8
2017-Oct-11 18:00N 48°07' W 122°46'2 4.1
2017-Oct-11 17:29N 48°07' W 122°43'2 4.4
2017-Oct-11 16:55N 48°09' W 122°40'4 0.3
2017-Oct-10 23:59N 48°07' W 122°45'4 8.4
2017-Oct-10 23:29N 48°09' W 122°40'2 3.8
2017-Oct-10 22:51N 48°08' W 122°43'2 3.6
2017-Oct-10 22:21N 48°07' W 122°45'410.2
2017-Oct-10 22:00N 48°09' W 122°41'1 1.5
2017-Oct-10 21:23N 48°08' W 122°42'3 6.2
2017-Oct-10 20:57N 48°07' W 122°46'3 5.7
2017-Oct-10 20:30N 48°08' W 122°42'2 3.7
2017-Oct-10 19:59N 48°09' W 122°40'4 5.8
2017-Oct-10 19:13N 48°07' W 122°45'310.2
2017-Oct-10 18:56N 48°08' W 122°42'2 3.2
2017-Oct-10 18:27N 48°09' W 122°40'4 9.8
2017-Oct-10 18:00N 48°07' W 122°46'2 4.4
2017-Oct-10 17:28N 48°08' W 122°42'2 4.5
2017-Oct-10 16:57N 48°09' W 122°40'4 8.5
2017-Oct-10 16:26N 48°07' W 122°46'2 4.1
2017-Oct-10 16:00N 48°07' W 122°43'3 5.3
2017-Oct-10 15:28N 48°09' W 122°40'4 6.2
2017-Oct-10 14:45N 48°07' W 122°46'4 4.7
2017-Oct-10 13:53N 48°09' W 122°40'4 0.4
2017-Oct-10 04:59N 48°07' W 122°46'1 1.5
2017-Oct-10 04:30N 48°07' W 122°45'4 6.5
2017-Oct-10 03:56N 48°09' W 122°40'4 4.4
2017-Oct-10 02:59N 48°06' W 122°45'4 6.8
2017-Oct-10 02:21N 48°09' W 122°40'410.8
2017-Oct-10 01:59N 48°07' W 122°45'0 0.3
2017-Oct-10 00:39N 48°07' W 122°46'0 0.2
2017-Oct-10 00:29N 48°07' W 122°46'4 6.1
2017-Oct-09 23:46N 48°09' W 122°40'2 8.1
2017-Oct-09 23:30N 48°08' W 122°42'2 5.0
2017-Oct-09 23:00N 48°07' W 122°46'4 5.8
2017-Oct-09 22:14N 48°09' W 122°40'210.1
2017-Oct-09 22:01N 48°07' W 122°42'2 4.5
2017-Oct-09 21:28N 48°07' W 122°45'3 3.1
2017-Oct-09 20:33N 48°08' W 122°42'113.0
2017-Oct-09 20:30N 48°08' W 122°42'2 4.8
2017-Oct-09 20:00N 48°07' W 122°46'4 5.7
2017-Oct-09 19:13N 48°09' W 122°40'2 9.8
2017-Oct-09 19:00N 48°08' W 122°42'2 0.1
2017-Oct-09 00:35N 48°07' W 122°46'1 3.7
2017-Oct-09 00:20N 48°06' W 122°44'4 6.2
2017-Oct-08 23:42N 48°09' W 122°40'310.6
2017-Oct-08 23:27N 48°08' W 122°43'2 3.8
2017-Oct-08 22:59N 48°07' W 122°45'4 7.1
2017-Oct-08 22:21N 48°09' W 122°40'411.8
2017-Oct-08 22:00N 48°07' W 122°45'1 2.4
2017-Oct-08 21:30N 48°07' W 122°43'3 3.9
2017-Oct-08 20:43N 48°09' W 122°40'311.2
2017-Oct-08 20:29N 48°08' W 122°43'2 3.7
2017-Oct-08 19:57N 48°07' W 122°45'4 6.1
2017-Oct-08 19:13N 48°09' W 122°40'210.4
2017-Oct-08 19:00N 48°07' W 122°42'3 4.8
2017-Oct-08 18:29N 48°07' W 122°46'4 6.0
2017-Oct-08 17:44N 48°09' W 122°40'210.4
2017-Oct-08 17:30N 48°07' W 122°42'  
Track history (hours):
 
Tides and Currents Weather Stations Pressure Air Temp Water Temp Dewpoint Dewpoint Depression Visibility Wind Speed Wind Dir Waves Ship Positions

Salish

Owner: WASHINGTON, STATE OF; Department of Transportation, Olympia, WA. More information available from US FCC via Universal Licensing System and Coast Guard Vessel Documentation Center.

Last reported at 2017-Oct-18 09:46 UTC. Time now 2017-Oct-18 11:17 UTC.
Position N 48°07' W 122°46'.

Length 86 m; draft 3.3 m.

Type: Passenger vessel. MMSI: 367480010.

Date/timePositionNaut miles runAvg speedWind from/ knotsBaromVisibWave heightAir tempDewpointWater temp
2017-Oct-18 09:46N 48°07' W 122°46'0 0.0
2017-Oct-18 08:08N 48°07' W 122°46'0 0.0
2017-Oct-18 07:49N 48°07' W 122°46'0 0.0
2017-Oct-18 07:29N 48°07' W 122°46'0 0.0
2017-Oct-18 04:38N 48°07' W 122°45'1 7.2
2017-Oct-18 04:29N 48°07' W 122°44'3 5.9
2017-Oct-18 03:56N 48°09' W 122°40'4 4.7
2017-Oct-18 03:02N 48°07' W 122°46'0 4.9
2017-Oct-18 02:59N 48°06' W 122°45'4 7.1
2017-Oct-18 02:21N 48°09' W 122°40'411.1
2017-Oct-18 01:58N 48°07' W 122°45'4 6.5
2017-Oct-18 01:20N 48°09' W 122°40'2 4.3
2017-Oct-18 00:46N 48°07' W 122°43'2 3.9
2017-Oct-18 00:17N 48°07' W 122°45'3 9.6
2017-Oct-18 00:00N 48°08' W 122°42'2 3.6
2017-Oct-17 23:29N 48°09' W 122°40'4 9.1
2017-Oct-17 23:00N 48°07' W 122°46'2 3.0
2017-Oct-17 22:30N 48°07' W 122°43'3 4.2
2017-Oct-17 21:46N 48°09' W 122°40'3 9.4
2017-Oct-17 21:26N 48°07' W 122°43'2 0.6
2017-Oct-17 18:52N 48°07' W 122°46'0 0.4
2017-Oct-17 18:24N 48°06' W 122°45'3 7.3
2017-Oct-17 17:59N 48°06' W 122°41'2 3.6
2017-Oct-17 17:30N 48°08' W 122°39'2 3.4
2017-Oct-17 16:55N 48°09' W 122°40'4 6.3
2017-Oct-17 16:12N 48°07' W 122°45'310.8
2017-Oct-17 15:56N 48°08' W 122°42'2 3.5
2017-Oct-17 15:26N 48°09' W 122°40'410.3
2017-Oct-17 15:00N 48°07' W 122°46'3 5.8
2017-Oct-17 14:29N 48°08' W 122°42'0 0.3
2017-Oct-17 13:49N 48°08' W 122°42'3 6.5
2017-Oct-17 13:22N 48°07' W 122°46'0 0.0
2017-Oct-17 07:21N 48°07' W 122°46'0 0.1
2017-Oct-17 04:36N 48°07' W 122°45'1 8.3
2017-Oct-17 04:30N 48°07' W 122°44'4 6.8
2017-Oct-17 03:58N 48°09' W 122°40'4 4.0
2017-Oct-17 02:53N 48°06' W 122°45'4 6.5
2017-Oct-17 02:14N 48°09' W 122°40'2 9.5
2017-Oct-17 02:00N 48°08' W 122°42'2 4.3
2017-Oct-17 01:27N 48°07' W 122°45'4 6.0
2017-Oct-17 00:43N 48°09' W 122°40'310.2
2017-Oct-17 00:27N 48°07' W 122°43'2 2.7
2017-Oct-16 23:45N 48°07' W 122°45'411.7
2017-Oct-16 23:22N 48°09' W 122°40'0 0.0
2017-Oct-16 23:00N 48°09' W 122°40'4 5.2
2017-Oct-16 22:11N 48°06' W 122°45'210.8
2017-Oct-16 22:00N 48°07' W 122°43'2 2.4
2017-Oct-16 21:21N 48°09' W 122°41'3 4.6
2017-Oct-16 20:40N 48°07' W 122°45'210.6
2017-Oct-16 20:30N 48°07' W 122°42'3 4.5
2017-Oct-16 19:56N 48°09' W 122°40'4 8.2
2017-Oct-16 19:24N 48°07' W 122°46'2 4.6
2017-Oct-16 19:00N 48°07' W 122°43'2 4.1
2017-Oct-16 18:24N 48°09' W 122°40'410.7
2017-Oct-16 18:00N 48°07' W 122°46'2 4.3
2017-Oct-16 17:30N 48°07' W 122°43'3 4.2
2017-Oct-16 16:55N 48°09' W 122°40'4 6.0
2017-Oct-16 16:11N 48°06' W 122°45'211.4
2017-Oct-16 15:58N 48°08' W 122°43'2 4.1
2017-Oct-16 15:28N 48°09' W 122°40'4 9.0
2017-Oct-16 14:59N 48°07' W 122°46'4 3.6
2017-Oct-16 13:53N 48°09' W 122°41'4 7.3
2017-Oct-16 13:21N 48°07' W 122°46'0 0.0
2017-Oct-16 12:51N 48°07' W 122°46'0 0.0
2017-Oct-16 12:30N 48°07' W 122°46'0 0.0
2017-Oct-16 12:00N 48°07' W 122°46'0 0.0
2017-Oct-16 11:20N 48°07' W 122°46'0 0.0
2017-Oct-16 10:59N 48°07' W 122°46'0 0.0
2017-Oct-16 10:30N 48°07' W 122°46'0 0.0
2017-Oct-16 10:00N 48°07' W 122°46'0 0.0
2017-Oct-16 09:30N 48°07' W 122°46'0 0.0
2017-Oct-16 09:00N 48°07' W 122°46'0 0.0
2017-Oct-16 08:30N 48°07' W 122°46'0 0.0
2017-Oct-16 07:59N 48°07' W 122°46'0 0.0
2017-Oct-16 07:30N 48°07' W 122°46'0 0.0
2017-Oct-16 06:56N 48°07' W 122°46'0 0.0
2017-Oct-16 06:30N 48°07' W 122°46'0 0.0
2017-Oct-16 05:51N 48°07' W 122°46'0 0.0
2017-Oct-16 05:28N 48°07' W 122°46'1 0.7
2017-Oct-16 04:34N 48°07' W 122°45'110.2
2017-Oct-16 04:30N 48°07' W 122°44'3 5.6
2017-Oct-16 03:57N 48°09' W 122°40'4 4.2
2017-Oct-16 02:57N 48°06' W 122°45'4 6.1
2017-Oct-16 02:15N 48°09' W 122°40'310.5
2017-Oct-16 01:56N 48°07' W 122°44'1 1.0
2017-Oct-16 01:25N 48°07' W 122°45'4 5.7
2017-Oct-16 00:43N 48°09' W 122°40'210.1
2017-Oct-16 00:30N 48°08' W 122°43'2 2.7
2017-Oct-15 23:49N 48°07' W 122°45'4 5.3
2017-Oct-15 23:05N 48°09' W 122°40'1 8.8
2017-Oct-15 22:55N 48°08' W 122°42'3 4.8
2017-Oct-15 22:19N 48°07' W 122°45'2 1.7
2017-Oct-15 21:16N 48°08' W 122°43'2 2.7
2017-Oct-15 20:43N 48°06' W 122°45'211.2
2017-Oct-15 20:29N 48°08' W 122°42'2 3.8
2017-Oct-15 20:00N 48°09' W 122°40'4 5.9
2017-Oct-15 19:15N 48°07' W 122°45'310.8
2017-Oct-15 19:01N 48°08' W 122°42'2 4.1
2017-Oct-15 18:30N 48°09' W 122°40'4 5.4
2017-Oct-15 17:42N 48°06' W 122°45'211.1
2017-Oct-15 17:30N 48°07' W 122°42'2 4.2
2017-Oct-15 16:57N 48°09' W 122°40'4 5.6
2017-Oct-15 16:09N 48°07' W 122°45'210.9
2017-Oct-15 15:59N 48°07' W 122°43'2 4.3
2017-Oct-15 15:25N 48°09' W 122°40'4 6.1
2017-Oct-15 14:43N 48°07' W 122°46'4 5.9
2017-Oct-15 13:57N 48°09' W 122°40'4 9.3
2017-Oct-15 13:28N 48°07' W 122°46'0 0.0
2017-Oct-15 12:59N 48°07' W 122°46'0 0.0
2017-Oct-15 12:23N 48°07' W 122°46'0 0.0
2017-Oct-15 12:00N 48°07' W 122°46'0 0.0
2017-Oct-15 11:05N 48°07' W 122°46'0 0.0
2017-Oct-15 10:59N 48°07' W 122°46'0 0.0
2017-Oct-15 09:36N 48°07' W 122°46'0 0.0
2017-Oct-15 09:12N 48°07' W 122°46'0 0.0
2017-Oct-15 08:51N 48°07' W 122°46'0 0.0
2017-Oct-15 06:02N 48°07' W 122°46'0 0.0
2017-Oct-15 04:39N 48°07' W 122°46'1 4.2
2017-Oct-15 04:30N 48°07' W 122°45'4 6.7
2017-Oct-15 03:55N 48°09' W 122°40'410.8
2017-Oct-15 03:30N 48°07' W 122°46'0 0.1
2017-Oct-15 02:59N 48°07' W 122°46'4 5.9
2017-Oct-15 02:14N 48°09' W 122°40'311.4
2017-Oct-15 01:58N 48°07' W 122°44'1 3.0
2017-Oct-15 01:30N 48°07' W 122°46'4 5.5
2017-Oct-15 00:42N 48°09' W 122°40'4 5.5
2017-Oct-14 23:54N 48°07' W 122°46'4 4.7
2017-Oct-14 23:02N 48°09' W 122°41'210.9
2017-Oct-14 22:51N 48°08' W 122°43'2 2.5
2017-Oct-14 22:15N 48°07' W 122°45'4 6.0
2017-Oct-14 21:35N 48°09' W 122°40'1 8.4
2017-Oct-14 21:28N 48°09' W 122°41'4 6.3
2017-Oct-14 20:54N 48°07' W 122°46'4 8.8
2017-Oct-14 20:30N 48°09' W 122°41'1 1.7
2017-Oct-14 20:00N 48°09' W 122°40'4 6.3
2017-Oct-14 19:18N 48°07' W 122°46'3 9.6
2017-Oct-14 19:00N 48°08' W 122°42'2 3.3
2017-Oct-14 18:29N 48°09' W 122°40'4 6.1
2017-Oct-14 17:45N 48°07' W 122°46'2 9.3
2017-Oct-14 17:30N 48°07' W 122°42'3 4.7
2017-Oct-14 16:58N 48°09' W 122°40'4 7.1
2017-Oct-14 16:20N 48°07' W 122°46'2 6.4
2017-Oct-14 16:00N 48°07' W 122°43'3 4.5
2017-Oct-14 15:26N 48°09' W 122°40'4 5.7
2017-Oct-14 14:40N 48°06' W 122°45'210.1
2017-Oct-14 14:30N 48°08' W 122°43'3 4.7
2017-Oct-14 13:55N 48°09' W 122°40'4 0.5
2017-Oct-14 04:40N 48°06' W 122°45'211.3
2017-Oct-14 04:30N 48°08' W 122°43'3 5.2
2017-Oct-14 04:00N 48°09' W 122°40'5 5.1
2017-Oct-14 03:06N 48°07' W 122°45'1 5.7
2017-Oct-14 03:00N 48°07' W 122°45'4 5.3
2017-Oct-14 02:16N 48°09' W 122°40'311.4
2017-Oct-14 02:00N 48°07' W 122°44'2 0.8
2017-Oct-13 23:34N 48°09' W 122°42'1 2.2
2017-Oct-13 23:06N 48°09' W 122°40'1 9.6
2017-Oct-13 22:59N 48°09' W 122°41'3 5.2
2017-Oct-13 22:21N 48°06' W 122°45'412.0
2017-Oct-13 21:59N 48°09' W 122°40'2 2.9
2017-Oct-13 21:26N 48°08' W 122°42'3 4.5
2017-Oct-13 20:50N 48°06' W 122°45'412.3
2017-Oct-13 20:30N 48°09' W 122°40'1 2.4
2017-Oct-13 19:58N 48°08' W 122°42'3 4.9
2017-Oct-13 19:20N 48°06' W 122°45'412.2
2017-Oct-13 19:00N 48°09' W 122°40'0 0.3
2017-Oct-13 18:30N 48°09' W 122°41'4 5.8
2017-Oct-13 17:49N 48°07' W 122°46'3 9.4
2017-Oct-13 17:30N 48°08' W 122°41'2 2.9
2017-Oct-13 16:58N 48°09' W 122°40'4 9.5
2017-Oct-13 16:30N 48°07' W 122°46'2 4.1
2017-Oct-13 15:59N 48°07' W 122°43'2 4.3
2017-Oct-13 15:26N 48°09' W 122°40'410.2
2017-Oct-13 15:00N 48°07' W 122°46'2 4.2
2017-Oct-13 14:30N 48°08' W 122°43'2 3.5
2017-Oct-13 13:55N 48°08' W 122°40'4 0.5
2017-Oct-13 06:11N 48°07' W 122°46'0 0.2
2017-Oct-13 04:34N 48°06' W 122°45'1 9.0
2017-Oct-13 04:30N 48°07' W 122°45'4 6.3
2017-Oct-13 03:55N 48°09' W 122°40'4 4.7
2017-Oct-13 02:58N 48°07' W 122°45'2 1.9
2017-Oct-13 01:57N 48°08' W 122°43'2 3.7
2017-Oct-13 01:28N 48°06' W 122°45'2 1.8
2017-Oct-13 00:28N 48°08' W 122°43'2 3.3
2017-Oct-12 23:54N 48°07' W 122°46'2 5.7
2017-Oct-12 23:30N 48°08' W 122°43'2 4.4
2017-Oct-12 22:59N 48°09' W 122°40'4 7.9
2017-Oct-12 22:26N 48°07' W 122°46'2 5.2
2017-Oct-12 22:00N 48°08' W 122°43'2 4.2
2017-Oct-12 21:28N 48°09' W 122°40'4 5.7
2017-Oct-12 20:42N 48°07' W 122°45'2 9.3
2017-Oct-12 20:29N 48°08' W 122°43'3 4.8
2017-Oct-12 19:57N 48°09' W 122°40'4 5.4
2017-Oct-12 19:09N 48°06' W 122°45'210.8
2017-Oct-12 19:01N 48°07' W 122°43'3 4.9
2017-Oct-12 18:27N 48°09' W 122°40'4 6.4
2017-Oct-12 17:46N 48°07' W 122°46'2 9.0
2017-Oct-12 17:30N 48°08' W 122°42'2 4.3
2017-Oct-12 17:00N 48°09' W 122°40'4 5.2
2017-Oct-12 16:10N 48°06' W 122°45'211.4
2017-Oct-12 15:59N 48°07' W 122°42'3 4.5
2017-Oct-12 15:26N 48°09' W 122°40'410.3
2017-Oct-12 15:00N 48°07' W 122°46'2 3.7
2017-Oct-12 14:31N 48°07' W 122°43'3 5.5
2017-Oct-12 13:59N 48°09' W 122°40'4 5.9
2017-Oct-12 13:14N 48°07' W 122°46'0 0.0
2017-Oct-12 12:58N 48°07' W 122°46'0 0.0
2017-Oct-12 12:31N 48°07' W 122°46'0 0.0
2017-Oct-12 11:54N 48°07' W 122°46'0 0.0
2017-Oct-12 11:25N 48°07' W 122°46'0 0.0
2017-Oct-12 10:30N 48°07' W 122°46'0 0.0
2017-Oct-12 07:51N 48°07' W 122°46'0 0.0
2017-Oct-12 07:25N 48°07' W 122°46'0 0.0
2017-Oct-12 07:00N 48°07' W 122°46'0 0.0
2017-Oct-12 06:27N 48°07' W 122°46'0 0.0
2017-Oct-12 05:54N 48°07' W 122°46'0 0.0
2017-Oct-12 05:28N 48°07' W 122°46'0 0.0
2017-Oct-12 05:00N 48°07' W 122°46'1 1.3
2017-Oct-12 04:30N 48°07' W 122°45'4 6.7
2017-Oct-12 03:55N 48°09' W 122°40'4 4.8
2017-Oct-12 02:59N 48°07' W 122°46'4 6.0
2017-Oct-12 02:16N 48°09' W 122°40'411.5
2017-Oct-12 01:57N 48°07' W 122°44'0 0.7
2017-Oct-12 01:29N 48°07' W 122°45'4 5.0
2017-Oct-12 00:41N 48°09' W 122°40'210.7
2017-Oct-12 00:28N 48°08' W 122°43'2 2.9
2017-Oct-11 23:44N 48°06' W 122°45'310.7
2017-Oct-11 23:28N 48°08' W 122°42'2 3.6
2017-Oct-11 23:00N 48°09' W 122°40'4 6.2
2017-Oct-11 22:16N 48°07' W 122°45'3 9.7
2017-Oct-11 21:57N 48°09' W 122°42'1 3.0
2017-Oct-11 21:30N 48°09' W 122°40'4 5.6
2017-Oct-11 20:42N 48°07' W 122°45'2 2.4
2017-Oct-11 19:45N 48°08' W 122°42'2 5.0
2017-Oct-11 19:17N 48°07' W 122°46'2 7.5
2017-Oct-11 19:00N 48°08' W 122°43'2 4.9
2017-Oct-11 18:30N 48°09' W 122°40'4 8.8
2017-Oct-11 18:00N 48°07' W 122°46'2 4.1
2017-Oct-11 17:29N 48°07' W 122°43'2 4.4
2017-Oct-11 16:55N 48°09' W 122°40'4 0.3
2017-Oct-10 23:59N 48°07' W 122°45'4 8.4
2017-Oct-10 23:29N 48°09' W 122°40'2 3.8
2017-Oct-10 22:51N 48°08' W 122°43'2 3.6
2017-Oct-10 22:21N 48°07' W 122°45'410.2
2017-Oct-10 22:00N 48°09' W 122°41'1 1.5
2017-Oct-10 21:23N 48°08' W 122°42'3 6.2
2017-Oct-10 20:57N 48°07' W 122°46'3 5.7
2017-Oct-10 20:30N 48°08' W 122°42'2 3.7
2017-Oct-10 19:59N 48°09' W 122°40'4 5.8
2017-Oct-10 19:13N 48°07' W 122°45'310.2
2017-Oct-10 18:56N 48°08' W 122°42'2 3.2
2017-Oct-10 18:27N 48°09' W 122°40'4 9.8
2017-Oct-10 18:00N 48°07' W 122°46'2 4.4
2017-Oct-10 17:28N 48°08' W 122°42'2 4.5
2017-Oct-10 16:57N 48°09' W 122°40'4 8.5
2017-Oct-10 16:26N 48°07' W 122°46'2 4.1
2017-Oct-10 16:00N 48°07' W 122°43'3 5.3
2017-Oct-10 15:28N 48°09' W 122°40'4 6.2
2017-Oct-10 14:45N 48°07' W 122°46'4 4.7
2017-Oct-10 13:53N 48°09' W 122°40'4 0.4
2017-Oct-10 04:59N 48°07' W 122°46'1 1.5
2017-Oct-10 04:30N 48°07' W 122°45'4 6.5
2017-Oct-10 03:56N 48°09' W 122°40'4 4.4
2017-Oct-10 02:59N 48°06' W 122°45'4 6.8
2017-Oct-10 02:21N 48°09' W 122°40'410.8
2017-Oct-10 01:59N 48°07' W 122°45'0 0.3
2017-Oct-10 00:39N 48°07' W 122°46'0 0.2
2017-Oct-10 00:29N 48°07' W 122°46'4 6.1
2017-Oct-09 23:46N 48°09' W 122°40'2 8.1
2017-Oct-09 23:30N 48°08' W 122°42'2 5.0
2017-Oct-09 23:00N 48°07' W 122°46'4 5.8
2017-Oct-09 22:14N 48°09' W 122°40'210.1
2017-Oct-09 22:01N 48°07' W 122°42'2 4.5
2017-Oct-09 21:28N 48°07' W 122°45'3 3.1
2017-Oct-09 20:33N 48°08' W 122°42'113.0
2017-Oct-09 20:30N 48°08' W 122°42'2 4.8
2017-Oct-09 20:00N 48°07' W 122°46'4 5.7
2017-Oct-09 19:13N 48°09' W 122°40'2 9.8
2017-Oct-09 19:00N 48°08' W 122°42'2 0.1
2017-Oct-09 00:35N 48°07' W 122°46'1 3.7
2017-Oct-09 00:20N 48°06' W 122°44'4 6.2
2017-Oct-08 23:42N 48°09' W 122°40'310.6
2017-Oct-08 23:27N 48°08' W 122°43'2 3.8
2017-Oct-08 22:59N 48°07' W 122°45'4 7.1
2017-Oct-08 22:21N 48°09' W 122°40'411.8
2017-Oct-08 22:00N 48°07' W 122°45'1 2.4
2017-Oct-08 21:30N 48°07' W 122°43'3 3.9
2017-Oct-08 20:43N 48°09' W 122°40'311.2
2017-Oct-08 20:29N 48°08' W 122°43'2 3.7
2017-Oct-08 19:57N 48°07' W 122°45'4 6.1
2017-Oct-08 19:13N 48°09' W 122°40'210.4
2017-Oct-08 19:00N 48°07' W 122°42'3 4.8
2017-Oct-08 18:29N 48°07' W 122°46'4 6.0
2017-Oct-08 17:44N 48°09' W 122°40'210.4
2017-Oct-08 17:30N 48°07' W 122°42'  

Dump ship's entire track history